createdAt,value
2019-05-03T00:01:03.922Z,4.42
2019-05-03T00:03:33.992Z,3.90
2019-05-03T00:06:06.916Z,4.15
2019-05-03T00:08:37.008Z,5.05
2019-05-03T00:11:07.170Z,4.50
2019-05-03T00:13:37.248Z,4.58
2019-05-03T00:16:08.992Z,4.20
2019-05-03T00:18:39.092Z,4.15
2019-05-03T00:21:09.130Z,4.78
2019-05-03T00:23:39.195Z,4.75
2019-05-03T00:26:09.232Z,4.65
2019-05-03T00:28:39.266Z,6.72
2019-05-03T00:31:09.275Z,6.83
2019-05-03T00:33:42.166Z,7.72
2019-05-03T00:36:19.500Z,7.95
2019-05-03T00:38:52.464Z,7.50
2019-05-03T00:41:22.500Z,8.53
2019-05-03T00:43:52.611Z,8.33
2019-05-03T00:46:22.588Z,8.78
2019-05-03T00:48:53.711Z,8.85
2019-05-03T00:51:23.740Z,10.13
2019-05-03T00:53:53.824Z,10.08
2019-05-03T00:56:23.803Z,10.93
2019-05-03T00:58:55.534Z,10.88
2019-05-03T01:01:25.637Z,10.18
2019-05-03T01:03:55.643Z,9.48
2019-05-03T01:06:25.766Z,10.35
2019-05-03T01:08:55.838Z,9.90
2019-05-03T01:11:25.891Z,10.50
2019-05-03T01:13:55.903Z,9.95
2019-05-03T01:16:26.107Z,9.55
2019-05-03T01:18:56.154Z,9.65
2019-05-03T01:21:26.271Z,8.43
2019-05-03T01:23:56.311Z,9.85
2019-05-03T01:26:26.324Z,8.38
2019-05-03T01:28:56.295Z,8.75
2019-05-03T01:31:26.403Z,8.55
2019-05-03T01:33:56.371Z,9.35
2019-05-03T01:36:26.479Z,9.38
2019-05-03T01:38:56.627Z,9.13
2019-05-03T01:41:26.654Z,9.35
2019-05-03T01:43:56.676Z,9.93
2019-05-03T01:46:26.787Z,9.15
2019-05-03T01:49:07.480Z,8.25
2019-05-03T01:51:39.242Z,9.07
2019-05-03T01:54:09.243Z,8.93
2019-05-03T01:56:39.308Z,8.70
2019-05-03T01:59:09.235Z,9.03
2019-05-03T02:01:47.064Z,8.73
2019-05-03T02:04:18.708Z,8.33
2019-05-03T02:06:48.887Z,8.88
2019-05-03T02:09:18.904Z,9.15
2019-05-03T02:11:49.007Z,9.05
2019-05-03T02:14:19.123Z,9.35
2019-05-03T02:16:49.204Z,9.83
2019-05-03T02:19:19.239Z,9.10
2019-05-03T02:21:49.315Z,9.30
2019-05-03T02:24:19.639Z,10.32
2019-05-03T02:26:49.679Z,9.65
2019-05-03T02:29:21.821Z,9.33
2019-05-03T02:31:53.464Z,9.65
2019-05-03T02:34:23.949Z,10.82
2019-05-03T02:36:54.204Z,10.23
2019-05-03T02:39:24.210Z,8.28
2019-05-03T02:42:16.082Z,8.83
2019-05-03T02:44:46.243Z,9.55
2019-05-03T02:47:35.571Z,9.05
2019-05-03T02:50:08.251Z,9.55
2019-05-03T02:52:38.390Z,9.65
2019-05-03T02:55:09.752Z,9.88
2019-05-03T02:57:40.802Z,9.83
2019-05-03T03:00:15.961Z,10.23
2019-05-03T03:02:45.665Z,8.45
2019-05-03T03:05:16.631Z,9.70
2019-05-03T03:07:49.879Z,8.75
2019-05-03T03:10:19.955Z,9.60
2019-05-03T03:12:55.118Z,9.40
2019-05-03T03:15:25.709Z,10.10
2019-05-03T03:17:58.832Z,7.87
2019-05-03T03:20:32.148Z,9.30
2019-05-03T03:23:06.097Z,9.08
2019-05-03T03:25:39.139Z,9.60
2019-05-03T03:28:12.456Z,8.98
2019-05-03T03:30:57.696Z,9.58
2019-05-03T03:33:28.551Z,10.23
2019-05-03T03:36:29.388Z,10.45
2019-05-03T03:38:31.100Z,10.53
2019-05-03T03:41:05.593Z,9.77
2019-05-03T03:43:35.491Z,10.45
2019-05-03T03:46:06.488Z,9.88
2019-05-03T03:48:38.865Z,9.98
2019-05-03T03:51:11.819Z,10.13
2019-05-03T03:53:46.545Z,10.90
2019-05-03T03:56:19.639Z,10.95
2019-05-03T03:58:49.861Z,11.20
2019-05-03T04:01:20.213Z,11.83
2019-05-03T04:03:50.328Z,10.58
2019-05-03T04:06:22.046Z,9.83
2019-05-03T04:08:52.583Z,11.60
2019-05-03T04:11:22.702Z,11.37
2019-05-03T04:13:52.784Z,11.33
2019-05-03T04:16:30.797Z,10.70
2019-05-03T04:19:02.522Z,12.60
2019-05-03T04:21:32.572Z,10.98
2019-05-03T04:24:02.651Z,10.70
2019-05-03T04:26:35.626Z,11.75
2019-05-03T04:29:05.507Z,11.33
2019-05-03T04:31:36.853Z,12.37
2019-05-03T04:34:08.001Z,10.95
2019-05-03T04:36:38.059Z,10.80
2019-05-03T04:39:08.243Z,11.78
2019-05-03T04:41:38.379Z,11.78
2019-05-03T04:44:08.497Z,12.40
2019-05-03T04:46:38.513Z,11.70
2019-05-03T04:49:08.657Z,11.83
2019-05-03T04:51:38.855Z,12.18
2019-05-03T04:54:26.663Z,11.97
2019-05-03T04:56:57.920Z,13.43
2019-05-03T04:59:27.981Z,12.70
2019-05-03T05:01:58.071Z,12.95
2019-05-03T05:04:28.196Z,13.95
2019-05-03T05:06:58.329Z,14.25
2019-05-03T05:09:28.423Z,12.90
2019-05-03T05:12:07.696Z,13.22
2019-05-03T05:14:37.808Z,13.30
2019-05-03T05:17:09.305Z,12.25
2019-05-03T05:22:16.249Z,13.65
2019-05-03T05:24:49.298Z,12.88
2019-05-03T05:27:25.572Z,12.33
2019-05-03T05:29:56.641Z,12.05
2019-05-03T05:32:26.871Z,11.18
2019-05-03T05:34:57.057Z,12.18
2019-05-03T05:37:27.195Z,11.78
2019-05-03T05:39:57.214Z,13.55
2019-05-03T05:42:27.328Z,12.70
2019-05-03T05:44:57.454Z,12.20
2019-05-03T05:47:29.144Z,13.20
2019-05-03T05:50:00.763Z,11.70
2019-05-03T05:52:30.852Z,12.50
2019-05-03T05:55:04.540Z,12.85
2019-05-03T05:57:35.979Z,12.75
2019-05-03T06:00:09.032Z,11.30
2019-05-03T06:02:39.079Z,10.93
2019-05-03T06:05:09.250Z,11.50
2019-05-03T06:07:40.938Z,10.53
2019-05-03T06:10:14.698Z,11.15
2019-05-03T06:12:46.219Z,10.78
2019-05-03T06:15:36.471Z,10.40
2019-05-03T06:18:14.651Z,10.32
2019-05-03T06:21:04.508Z,10.78
2019-05-03T06:23:38.523Z,10.75
2019-05-03T06:26:26.535Z,9.93
2019-05-03T06:28:57.180Z,10.48
2019-05-03T06:31:38.698Z,11.50
2019-05-03T06:34:08.779Z,11.33
2019-05-03T06:36:39.947Z,9.00
2019-05-03T06:39:10.065Z,9.08
2019-05-03T06:41:40.072Z,10.50
2019-05-03T06:44:14.306Z,9.65
2019-05-03T06:46:51.124Z,11.53
2019-05-03T06:49:21.240Z,8.10
2019-05-03T06:51:51.256Z,8.30
2019-05-03T06:54:26.894Z,6.30
2019-05-03T06:56:55.336Z,6.83
2019-05-03T06:59:26.530Z,7.22
2019-05-03T07:02:01.088Z,6.75
2019-05-03T07:04:34.585Z,7.92
2019-05-03T07:07:08.975Z,6.85
2019-05-03T07:09:46.454Z,7.87
2019-05-03T07:12:16.632Z,7.20
2019-05-03T07:14:46.592Z,6.42
2019-05-03T07:17:16.676Z,6.85
2019-05-03T07:19:46.771Z,6.95
2019-05-03T07:22:16.925Z,7.25
2019-05-03T07:24:47.120Z,6.40
2019-05-03T07:27:17.188Z,6.95
2019-05-03T07:29:47.321Z,6.80
2019-05-03T07:32:17.395Z,6.72
2019-05-03T07:34:47.529Z,6.35
2019-05-03T07:37:17.645Z,6.65
2019-05-03T07:39:47.688Z,7.72
2019-05-03T07:42:17.848Z,8.65
2019-05-03T07:44:47.863Z,6.95
2019-05-03T07:47:18.952Z,9.13
2019-05-03T07:49:49.043Z,8.18
2019-05-03T07:52:19.089Z,6.95
2019-05-03T07:54:49.172Z,6.92
2019-05-03T07:57:37.194Z,7.60
2019-05-03T08:00:09.308Z,7.53
2019-05-03T08:02:39.419Z,8.63
2019-05-03T08:05:09.776Z,7.22
2019-05-03T08:07:39.793Z,8.05
2019-05-03T08:10:10.112Z,6.62
2019-05-03T08:12:40.539Z,7.53
2019-05-03T08:15:10.659Z,7.50
2019-05-03T08:17:40.900Z,8.13
2019-05-03T08:20:11.356Z,7.78
2019-05-03T08:22:41.471Z,6.63
2019-05-03T08:25:11.636Z,6.50
2019-05-03T08:27:41.676Z,6.72
2019-05-03T08:30:14.782Z,5.70
2019-05-03T08:32:55.851Z,5.75
2019-05-03T08:35:39.708Z,6.50
2019-05-03T08:38:09.752Z,7.37
2019-05-03T08:40:41.395Z,7.05
2019-05-03T08:43:15.412Z,6.15
2019-05-03T08:45:45.063Z,5.83
2019-05-03T08:48:15.277Z,6.00
2019-05-03T08:50:46.284Z,5.87
2019-05-03T08:53:16.339Z,6.33
2019-05-03T08:55:46.352Z,6.67
2019-05-03T08:58:16.459Z,7.03
2019-05-03T09:00:47.435Z,5.92
2019-05-03T09:03:17.466Z,6.00
2019-05-03T09:05:47.533Z,6.87
2019-05-03T09:08:18.491Z,6.70
2019-05-03T09:10:54.424Z,7.15
2019-05-03T09:13:25.091Z,5.92
2019-05-03T09:15:55.943Z,8.00
2019-05-03T09:18:26.023Z,8.10
2019-05-03T09:20:55.907Z,7.65
2019-05-03T09:23:26.165Z,7.45
2019-05-03T09:25:56.180Z,7.80
2019-05-03T09:28:29.045Z,7.75
2019-05-03T09:30:57.854Z,7.65
2019-05-03T09:33:27.997Z,7.78
2019-05-03T09:35:58.107Z,7.08
2019-05-03T09:38:28.215Z,7.37
2019-05-03T09:40:58.201Z,8.30
2019-05-03T09:43:28.207Z,10.38
2019-05-03T09:45:58.267Z,8.75
2019-05-03T09:48:28.304Z,9.10
2019-05-03T09:50:58.311Z,8.98
2019-05-03T09:53:35.747Z,8.83
2019-05-03T09:56:05.827Z,8.90
2019-05-03T09:58:38.162Z,8.63
2019-05-03T10:01:08.607Z,7.83
2019-05-03T10:06:07.848Z,7.92
2019-05-03T10:08:37.887Z,6.83
2019-05-03T10:11:10.760Z,8.88
2019-05-03T10:13:41.984Z,8.60
2019-05-03T10:16:15.833Z,10.00
2019-05-03T10:18:45.964Z,9.53
2019-05-03T10:23:45.520Z,7.70
2019-05-03T10:26:15.577Z,8.30
2019-05-03T10:28:45.683Z,8.18
2019-05-03T10:31:15.764Z,9.30
2019-05-03T10:33:47.516Z,8.10
2019-05-03T10:36:17.587Z,8.93
2019-05-03T10:38:48.639Z,9.20
2019-05-03T10:41:18.647Z,9.03
2019-05-03T10:43:48.756Z,8.88
2019-05-03T10:46:18.831Z,8.30
2019-05-03T10:48:48.951Z,8.60
2019-05-03T10:51:19.095Z,8.18
2019-05-03T10:53:50.773Z,8.75
2019-05-03T10:56:26.814Z,8.85
2019-05-03T10:58:58.671Z,10.13
2019-05-03T11:01:30.499Z,7.65
2019-05-03T11:04:00.571Z,7.80
2019-05-03T11:06:30.675Z,7.55
2019-05-03T11:09:02.320Z,8.15
2019-05-03T11:11:35.161Z,6.50
2019-05-03T11:14:05.707Z,8.53
2019-05-03T11:16:35.823Z,8.78
2019-05-03T11:19:05.892Z,8.40
2019-05-03T11:21:35.855Z,6.47
2019-05-03T11:24:05.960Z,4.87
2019-05-03T11:26:37.032Z,4.37
2019-05-03T11:29:07.139Z,4.05
2019-05-03T11:31:47.657Z,4.45
2019-05-03T11:34:22.371Z,5.20
2019-05-03T11:37:04.943Z,3.37
2019-05-03T11:39:35.019Z,4.47
2019-05-03T11:42:05.090Z,4.62
2019-05-03T11:44:38.343Z,3.52
2019-05-03T11:47:09.471Z,3.00
2019-05-03T11:49:39.584Z,3.17
2019-05-03T11:52:10.632Z,2.00
2019-05-03T11:54:40.676Z,2.55
2019-05-03T11:57:12.383Z,2.00
2019-05-03T11:59:42.411Z,2.37
2019-05-03T12:02:15.359Z,2.55
2019-05-03T12:04:45.947Z,1.82
2019-05-03T12:07:18.464Z,1.83
2019-05-03T12:09:48.578Z,1.82
2019-05-03T12:12:26.073Z,1.57
2019-05-03T12:14:56.100Z,1.40
2019-05-03T12:17:29.671Z,1.20
2019-05-03T12:20:00.656Z,1.30
2019-05-03T12:22:32.976Z,1.00
2019-05-03T12:25:10.156Z,1.05
2019-05-03T12:27:37.053Z,0.80
2019-05-03T12:30:08.196Z,1.47
2019-05-03T12:32:38.306Z,1.10
2019-05-03T12:35:08.580Z,1.00
2019-05-03T12:37:38.613Z,1.12
2019-05-03T12:40:10.420Z,1.15
2019-05-03T12:42:40.607Z,0.82
2019-05-03T12:45:10.955Z,1.10
2019-05-03T12:47:41.061Z,0.87
2019-05-03T12:50:12.472Z,1.12
2019-05-03T12:52:49.870Z,1.10
2019-05-03T12:55:15.376Z,0.90
2019-05-03T12:57:46.547Z,0.65
2019-05-03T13:00:27.727Z,0.82
2019-05-03T13:03:02.100Z,1.10
2019-05-03T13:05:32.280Z,0.98
2019-05-03T13:08:23.360Z,1.35
2019-05-03T13:10:55.734Z,1.20
2019-05-03T13:15:55.902Z,0.90
2019-05-03T13:18:25.858Z,0.72
2019-05-03T13:20:55.964Z,1.15
2019-05-03T13:23:26.004Z,0.98
2019-05-03T13:25:56.006Z,0.88
2019-05-03T13:28:26.103Z,1.02
2019-05-03T13:30:57.175Z,1.15
2019-05-03T13:33:27.284Z,1.20
2019-05-03T13:35:57.353Z,1.05
2019-05-03T13:38:27.467Z,1.20
2019-05-03T13:40:57.699Z,1.55
2019-05-03T13:43:27.904Z,1.35
2019-05-03T13:45:57.936Z,1.95
2019-05-03T13:48:41.304Z,1.90
2019-05-03T13:50:59.659Z,3.15
2019-05-03T13:53:29.621Z,2.20
2019-05-03T13:55:59.659Z,1.98
2019-05-03T13:58:29.630Z,2.45
2019-05-03T14:00:59.555Z,2.47
2019-05-03T14:03:30.271Z,2.37
2019-05-03T14:06:00.207Z,1.72
2019-05-03T14:08:30.246Z,1.90
2019-05-03T14:11:00.247Z,3.72
2019-05-03T14:13:30.283Z,5.87
2019-05-03T14:16:00.211Z,7.40
2019-05-03T14:18:30.688Z,4.22
2019-05-03T14:21:05.208Z,3.47
2019-05-03T14:23:36.842Z,3.27
2019-05-03T14:26:06.912Z,2.95
2019-05-03T14:28:36.947Z,2.27
2019-05-03T14:31:07.048Z,2.77
2019-05-03T14:33:37.011Z,2.98
2019-05-03T14:36:06.975Z,2.55
2019-05-03T14:38:36.979Z,2.45
2019-05-03T14:41:07.088Z,2.40
2019-05-03T14:43:37.157Z,1.95
2019-05-03T14:46:07.276Z,2.40
2019-05-03T14:48:37.215Z,2.95
2019-05-03T14:51:07.316Z,2.33
2019-05-03T14:53:37.345Z,2.50
2019-05-03T14:56:11.844Z,2.00
2019-05-03T14:58:56.029Z,2.50
2019-05-03T15:01:36.739Z,2.52
2019-05-03T15:04:06.855Z,2.40
2019-05-03T15:06:36.788Z,2.17
2019-05-03T15:09:07.608Z,2.45
2019-05-03T15:11:37.794Z,3.10
2019-05-03T15:14:07.847Z,2.72
2019-05-03T15:16:37.972Z,2.80
2019-05-03T15:19:08.108Z,2.67
2019-05-03T15:21:38.207Z,2.60
2019-05-03T15:26:38.209Z,2.17
2019-05-03T15:29:08.316Z,2.40
2019-05-03T15:31:38.314Z,1.93
2019-05-03T15:34:08.355Z,1.82
2019-05-03T15:36:38.483Z,2.35
2019-05-03T15:39:08.524Z,2.47
2019-05-03T15:41:38.835Z,2.20
2019-05-03T15:44:22.352Z,2.20
2019-05-03T15:46:56.735Z,2.25
2019-05-03T15:49:27.684Z,2.22
2019-05-03T15:51:57.973Z,1.75
2019-05-03T15:54:27.976Z,1.52
2019-05-03T15:56:58.091Z,1.77
2019-05-03T15:59:29.063Z,1.85
2019-05-03T16:01:59.094Z,1.67
2019-05-03T16:04:29.024Z,1.82
2019-05-03T16:06:59.059Z,1.55
2019-05-03T16:09:29.062Z,2.02
2019-05-03T16:11:59.105Z,1.82
2019-05-03T16:14:29.188Z,1.72
2019-05-03T16:16:59.219Z,1.82
2019-05-03T16:19:29.203Z,2.15
2019-05-03T16:21:59.131Z,2.37
2019-05-03T16:24:29.303Z,2.02
2019-05-03T16:27:05.005Z,2.07
2019-05-03T16:29:35.229Z,1.80
2019-05-03T16:32:05.466Z,2.10
2019-05-03T16:34:35.416Z,1.97
2019-05-03T16:37:06.467Z,2.50
2019-05-03T16:39:36.635Z,2.37
2019-05-03T16:42:08.597Z,2.42
2019-05-03T16:44:40.240Z,2.90
2019-05-03T16:47:11.946Z,2.30
2019-05-03T16:49:42.088Z,2.10
2019-05-03T16:52:14.679Z,2.55
2019-05-03T16:54:45.370Z,2.17
2019-05-03T16:57:17.498Z,2.92
2019-05-03T16:59:47.220Z,2.00
2019-05-03T17:02:17.563Z,2.33
2019-05-03T17:04:49.231Z,1.85
2019-05-03T17:07:36.956Z,2.20
2019-05-03T17:10:18.230Z,3.20
2019-05-03T17:12:48.311Z,2.33
2019-05-03T17:15:21.429Z,2.67
2019-05-03T17:17:52.016Z,2.75
2019-05-03T17:20:25.454Z,3.33
2019-05-03T17:22:56.027Z,3.70
2019-05-03T17:25:28.313Z,3.50
2019-05-03T17:27:58.425Z,4.37
2019-05-03T17:30:34.105Z,4.62
2019-05-03T17:33:02.044Z,4.05
2019-05-03T17:35:32.355Z,3.77
2019-05-03T17:38:02.956Z,4.75
2019-05-03T17:40:49.523Z,4.20
2019-05-03T17:43:26.884Z,4.90
2019-05-03T17:46:01.524Z,5.45
2019-05-03T17:48:31.598Z,5.78
2019-05-03T17:51:01.715Z,6.58
2019-05-03T17:53:37.092Z,7.20
2019-05-03T17:56:08.953Z,6.35
2019-05-03T17:58:40.681Z,7.65
2019-05-03T18:01:14.896Z,7.30
2019-05-03T18:03:46.615Z,7.58
2019-05-03T18:06:21.235Z,7.87
2019-05-03T18:08:55.981Z,9.68
2019-05-03T18:11:27.707Z,9.00
2019-05-03T18:13:57.756Z,8.03
2019-05-03T18:16:27.837Z,8.53
2019-05-03T18:18:57.955Z,7.90
2019-05-03T18:21:27.827Z,7.70
2019-05-03T18:23:57.938Z,8.10
2019-05-03T18:26:27.951Z,8.38
2019-05-03T18:28:57.928Z,8.33
2019-05-03T18:31:28.037Z,8.45
2019-05-03T18:33:58.332Z,8.25
2019-05-03T18:36:28.687Z,8.48
2019-05-03T18:38:58.761Z,8.43
2019-05-03T18:41:28.943Z,8.88
2019-05-03T18:44:06.735Z,7.97
2019-05-03T18:46:38.480Z,8.55
2019-05-03T18:49:08.579Z,8.65
2019-05-03T18:51:38.610Z,8.58
2019-05-03T18:54:08.663Z,8.13
2019-05-03T18:56:38.772Z,6.72
2019-05-03T18:59:08.694Z,6.12
2019-05-03T19:01:38.863Z,5.33
2019-05-03T19:04:10.503Z,5.78
2019-05-03T19:06:40.670Z,6.42
2019-05-03T19:09:30.425Z,5.92
2019-05-03T19:12:05.092Z,5.35
2019-05-03T19:14:35.231Z,4.70
2019-05-03T19:17:18.866Z,4.78
2019-05-03T19:19:56.659Z,5.22
2019-05-03T19:22:26.764Z,4.83
2019-05-03T19:24:56.763Z,4.80
2019-05-03T19:27:26.875Z,4.80
2019-05-03T19:29:56.913Z,5.97
2019-05-03T19:32:28.362Z,4.47
2019-05-03T19:34:58.590Z,4.78
2019-05-03T19:37:28.703Z,4.67
2019-05-03T19:39:58.812Z,6.40
2019-05-03T19:42:29.796Z,5.67
2019-05-03T19:45:05.341Z,5.85
2019-05-03T19:47:55.158Z,5.60
2019-05-03T19:50:27.319Z,5.95
2019-05-03T19:53:23.222Z,5.90
2019-05-03T19:55:55.199Z,6.10
2019-05-03T19:58:27.104Z,6.12
2019-05-03T20:01:05.626Z,7.10
2019-05-03T20:03:50.994Z,7.47
2019-05-03T20:06:25.208Z,7.97
2019-05-03T20:09:05.429Z,8.38
2019-05-03T20:11:35.094Z,9.03
2019-05-03T20:14:08.029Z,9.45
2019-05-03T20:16:41.003Z,10.43
2019-05-03T20:19:18.856Z,11.22
2019-05-03T20:21:45.988Z,10.32
2019-05-03T20:24:25.222Z,10.45
2019-05-03T20:26:51.367Z,11.90
2019-05-03T20:29:21.658Z,11.12
2019-05-03T20:31:55.213Z,12.75
2019-05-03T20:34:24.877Z,12.55
2019-05-03T20:37:09.583Z,13.55
2019-05-03T20:39:43.294Z,13.00
2019-05-03T20:42:41.105Z,13.95
2019-05-03T20:45:29.911Z,14.33
2019-05-03T20:48:06.784Z,13.93
2019-05-03T20:50:40.584Z,13.45
2019-05-03T20:53:10.663Z,14.68
2019-05-03T20:55:40.851Z,12.88
2019-05-03T20:58:11.495Z,12.40
2019-05-03T21:00:45.060Z,13.22
2019-05-03T21:03:17.891Z,13.98
2019-05-03T21:05:49.659Z,13.28
2019-05-03T21:08:20.011Z,13.30
2019-05-03T21:10:50.540Z,12.98
2019-05-03T21:13:20.707Z,12.53
2019-05-03T21:16:01.467Z,10.25
2019-05-03T21:18:45.995Z,11.33
2019-05-03T21:21:20.550Z,10.43
2019-05-03T21:24:10.599Z,10.13
2019-05-03T21:26:48.166Z,10.20
2019-05-03T21:29:18.277Z,9.58
2019-05-03T21:31:48.398Z,10.28
2019-05-03T21:34:18.594Z,11.25
2019-05-03T21:36:48.724Z,13.93
2019-05-03T21:39:18.842Z,13.38
2019-05-03T21:41:51.556Z,12.70
2019-05-03T21:44:31.165Z,13.00
2019-05-03T21:47:17.791Z,13.28
2019-05-03T21:49:52.217Z,14.43
2019-05-03T21:52:22.384Z,13.40
2019-05-03T21:54:54.422Z,15.35
2019-05-03T21:57:25.322Z,15.15
2019-05-03T21:59:56.465Z,17.73
2019-05-03T22:02:26.628Z,16.23
2019-05-03T22:04:56.847Z,17.35
2019-05-03T22:07:26.948Z,16.05
2019-05-03T22:09:57.071Z,16.97
2019-05-03T22:12:27.155Z,18.23
2019-05-03T22:14:58.916Z,17.23
2019-05-03T22:17:47.082Z,18.55
2019-05-03T22:20:39.806Z,17.55
2019-05-03T22:23:27.316Z,16.12
2019-05-03T22:25:57.440Z,17.17
2019-05-03T22:28:29.067Z,16.42
2019-05-03T22:30:59.215Z,16.25
2019-05-03T22:33:29.370Z,16.50
2019-05-03T22:36:08.631Z,16.93
2019-05-03T22:38:36.234Z,16.73
2019-05-03T22:41:05.487Z,17.40
2019-05-03T22:46:05.319Z,17.73
2019-05-03T22:48:35.367Z,18.07
2019-05-03T22:51:05.304Z,18.80
2019-05-03T22:53:35.351Z,18.12
2019-05-03T22:56:05.366Z,19.37
2019-05-03T22:58:35.569Z,18.80
2019-05-03T23:01:05.623Z,19.40
2019-05-03T23:03:37.311Z,19.92
2019-05-03T23:06:18.981Z,21.17
2019-05-03T23:08:38.983Z,22.75
2019-05-03T23:11:09.067Z,21.68
2019-05-03T23:13:39.127Z,21.40
2019-05-03T23:16:09.146Z,22.73
2019-05-03T23:18:39.199Z,22.32
2019-05-03T23:21:10.815Z,22.30
2019-05-03T23:23:50.931Z,24.12
2019-05-03T23:26:21.006Z,22.90
2019-05-03T23:28:51.069Z,23.25
2019-05-03T23:31:21.248Z,22.90
2019-05-03T23:33:54.155Z,24.10
2019-05-03T23:36:33.277Z,23.50
2019-05-03T23:38:55.479Z,24.43
2019-05-03T23:41:25.599Z,24.63
2019-05-03T23:43:55.615Z,24.50
2019-05-03T23:46:27.428Z,26.00
2019-05-03T23:48:57.492Z,27.37
2019-05-03T23:51:45.454Z,25.27
2019-05-03T23:54:15.640Z,26.12
2019-05-03T23:56:46.030Z,24.12
2019-05-03T23:59:16.182Z,24.65
